createdAt,value
2022-12-28T00:00:35.566Z,53.66
2022-12-28T00:01:35.485Z,52.21
2022-12-28T00:02:35.468Z,53.98
2022-12-28T00:03:35.458Z,60.26
2022-12-28T00:04:35.484Z,55.59
2022-12-28T00:05:35.431Z,57.36
2022-12-28T00:06:35.476Z,55.27
2022-12-28T00:07:35.387Z,56.40
2022-12-28T00:08:35.357Z,54.46
2022-12-28T00:09:35.385Z,58.49
2022-12-28T00:11:08.429Z,54.95
2022-12-28T00:11:36.350Z,58.65
2022-12-28T00:12:35.376Z,50.11
2022-12-28T00:13:35.365Z,53.50
2022-12-28T00:14:35.347Z,56.07
2022-12-28T00:15:35.345Z,52.21
2022-12-28T00:16:35.370Z,54.95
2022-12-28T00:17:35.371Z,58.01
2022-12-28T00:18:35.327Z,56.07
2022-12-28T00:19:35.309Z,55.91
2022-12-28T00:20:35.339Z,59.62
2022-12-28T00:21:35.307Z,53.50
2022-12-28T00:22:35.544Z,59.46
2022-12-28T00:23:35.288Z,58.65
2022-12-28T00:24:35.320Z,56.07
2022-12-28T00:25:35.324Z,55.59
2022-12-28T00:26:35.260Z,53.50
2022-12-28T00:27:35.300Z,55.43
2022-12-28T00:28:35.339Z,63.49
2022-12-28T00:29:35.274Z,56.88
2022-12-28T00:30:35.227Z,61.87
2022-12-28T00:31:35.383Z,60.42
2022-12-28T00:32:35.230Z,53.98
2022-12-28T00:33:35.321Z,57.04
2022-12-28T00:34:36.219Z,53.50
2022-12-28T00:35:35.204Z,53.01
2022-12-28T00:37:08.702Z,53.66
2022-12-28T00:37:36.126Z,51.72
2022-12-28T00:38:35.196Z,50.92
2022-12-28T00:39:35.172Z,57.69
2022-12-28T00:40:35.181Z,54.62
2022-12-28T00:41:35.169Z,57.52
2022-12-28T00:42:35.131Z,57.04
2022-12-28T00:43:35.163Z,54.95
2022-12-28T00:44:35.216Z,54.62
2022-12-28T00:45:35.163Z,55.11
2022-12-28T00:46:35.123Z,59.94
2022-12-28T00:47:35.128Z,53.50
2022-12-28T00:48:35.090Z,53.33
2022-12-28T00:49:35.129Z,59.94
2022-12-28T00:50:35.153Z,55.43
2022-12-28T00:51:35.079Z,59.14
2022-12-28T00:52:35.012Z,49.47
2022-12-28T00:53:34.981Z,49.47
2022-12-28T00:54:34.984Z,64.29
2022-12-28T00:55:35.000Z,58.81
2022-12-28T00:56:34.989Z,60.26
2022-12-28T00:57:35.020Z,49.47
2022-12-28T00:58:34.969Z,51.56
2022-12-28T00:59:34.984Z,56.88
2022-12-28T01:00:34.968Z,52.85
2022-12-28T01:01:35.188Z,55.91
2022-12-28T01:02:35.054Z,55.75
2022-12-28T01:03:35.018Z,54.79
2022-12-28T01:04:34.988Z,60.91
2022-12-28T01:05:34.984Z,48.34
2022-12-28T01:06:35.026Z,52.69
2022-12-28T01:07:34.980Z,58.81
2022-12-28T01:08:34.955Z,52.69
2022-12-28T01:09:34.968Z,57.36
2022-12-28T01:10:34.942Z,52.85
2022-12-28T01:11:34.954Z,55.11
2022-12-28T01:12:38.300Z,57.52
2022-12-28T01:13:35.943Z,53.66
2022-12-28T01:14:34.979Z,53.17
2022-12-28T01:15:34.972Z,58.97
2022-12-28T01:16:35.021Z,54.62
2022-12-28T01:17:35.020Z,61.71
2022-12-28T01:18:34.908Z,58.49
2022-12-28T01:19:34.879Z,54.30
2022-12-28T01:20:34.911Z,50.76
2022-12-28T01:21:34.897Z,51.72
2022-12-28T01:22:34.882Z,56.72
2022-12-28T01:23:35.165Z,51.56
2022-12-28T01:24:34.891Z,57.69
2022-12-28T01:25:34.885Z,49.63
2022-12-28T01:26:34.880Z,49.79
2022-12-28T01:27:34.837Z,52.69
2022-12-28T01:28:34.872Z,52.85
2022-12-28T01:29:34.849Z,50.11
2022-12-28T01:30:34.940Z,57.20
2022-12-28T01:31:34.845Z,55.75
2022-12-28T01:32:34.784Z,51.72
2022-12-28T01:33:34.825Z,52.53
2022-12-28T01:34:34.824Z,56.24
2022-12-28T01:35:34.777Z,57.20
2022-12-28T01:36:34.811Z,52.37
2022-12-28T01:37:34.769Z,50.92
2022-12-28T01:38:34.812Z,50.76
2022-12-28T01:39:34.819Z,50.11
2022-12-28T01:40:34.828Z,52.05
2022-12-28T01:41:34.735Z,55.27
2022-12-28T01:42:34.718Z,57.36
2022-12-28T01:43:34.715Z,58.01
2022-12-28T01:44:34.643Z,50.11
2022-12-28T01:45:34.717Z,59.14
2022-12-28T01:46:34.752Z,53.98
2022-12-28T01:47:34.624Z,49.47
2022-12-28T01:48:34.611Z,50.92
2022-12-28T01:49:34.590Z,50.11
2022-12-28T01:50:34.622Z,50.76
2022-12-28T01:51:34.612Z,54.30
2022-12-28T01:52:34.649Z,49.95
2022-12-28T01:53:34.660Z,52.69
2022-12-28T01:54:34.603Z,58.17
2022-12-28T01:55:34.610Z,60.26
2022-12-28T01:56:34.684Z,60.42
2022-12-28T01:57:34.667Z,56.40
2022-12-28T01:58:34.603Z,56.56
2022-12-28T01:59:34.696Z,54.46
2022-12-28T02:00:34.604Z,52.85
2022-12-28T02:01:34.738Z,59.78
2022-12-28T02:02:34.824Z,53.01
2022-12-28T02:03:34.628Z,56.56
2022-12-28T02:04:34.582Z,57.69
2022-12-28T02:05:34.601Z,53.01
2022-12-28T02:06:34.580Z,55.91
2022-12-28T02:07:34.590Z,57.20
2022-12-28T02:08:34.481Z,57.36
2022-12-28T02:09:34.535Z,55.91
2022-12-28T02:10:43.732Z,52.05
2022-12-28T02:11:35.439Z,53.82
2022-12-28T02:12:34.555Z,55.27
2022-12-28T02:13:34.523Z,57.85
2022-12-28T02:14:34.507Z,59.46
2022-12-28T02:15:34.495Z,56.56
2022-12-28T02:16:34.544Z,62.36
2022-12-28T02:17:34.473Z,54.14
2022-12-28T02:18:34.524Z,55.11
2022-12-28T02:19:34.508Z,51.40
2022-12-28T02:20:34.482Z,57.52
2022-12-28T02:21:34.531Z,58.49
2022-12-28T02:22:34.493Z,59.30
2022-12-28T02:23:34.767Z,57.69
2022-12-28T02:24:34.468Z,50.60
2022-12-28T02:25:34.431Z,55.27
2022-12-28T02:26:34.530Z,53.17
2022-12-28T02:27:34.449Z,58.49
2022-12-28T02:28:34.446Z,61.23
2022-12-28T02:29:34.489Z,57.85
2022-12-28T02:30:34.457Z,56.88
2022-12-28T02:31:34.366Z,50.76
2022-12-28T02:32:34.357Z,58.97
2022-12-28T02:33:34.367Z,51.40
2022-12-28T02:34:34.460Z,54.95
2022-12-28T02:35:34.343Z,55.11
2022-12-28T02:36:34.288Z,55.43
2022-12-28T02:37:34.312Z,52.37
2022-12-28T02:38:34.339Z,49.31
2022-12-28T02:39:34.246Z,55.43
2022-12-28T02:40:34.291Z,59.62
2022-12-28T02:41:34.265Z,58.17
2022-12-28T02:42:34.237Z,57.85
2022-12-28T02:43:34.212Z,58.33
2022-12-28T02:44:34.274Z,53.01
2022-12-28T02:45:34.369Z,60.10
2022-12-28T02:46:34.268Z,57.52
2022-12-28T02:47:34.337Z,50.11
2022-12-28T02:48:34.335Z,55.27
2022-12-28T02:49:34.323Z,61.71
2022-12-28T02:50:34.237Z,55.59
2022-12-28T02:51:34.273Z,59.30
2022-12-28T02:52:34.251Z,50.92
2022-12-28T02:53:34.194Z,49.15
2022-12-28T02:54:34.261Z,49.15
2022-12-28T02:55:34.245Z,51.56
2022-12-28T02:56:34.228Z,57.04
2022-12-28T02:57:34.226Z,53.01
2022-12-28T02:58:34.177Z,50.92
2022-12-28T02:59:34.180Z,60.91
2022-12-28T03:00:34.172Z,57.85
2022-12-28T03:01:34.241Z,49.15
2022-12-28T03:02:34.315Z,59.78
2022-12-28T03:03:34.153Z,57.20
2022-12-28T03:04:34.149Z,57.04
2022-12-28T03:05:34.158Z,53.01
2022-12-28T03:06:34.152Z,58.65
2022-12-28T03:07:34.191Z,56.40
2022-12-28T03:08:34.187Z,56.72
2022-12-28T03:09:34.095Z,61.55
2022-12-28T03:10:34.170Z,61.23
2022-12-28T03:11:34.102Z,57.36
2022-12-28T03:12:34.082Z,56.88
2022-12-28T03:13:34.094Z,55.75
2022-12-28T03:14:34.095Z,57.69
2022-12-28T03:15:34.078Z,60.26
2022-12-28T03:16:34.085Z,59.94
2022-12-28T03:17:34.023Z,58.33
2022-12-28T03:18:34.067Z,57.52
2022-12-28T03:19:34.043Z,53.98
2022-12-28T03:20:34.041Z,58.81
2022-12-28T03:21:34.045Z,50.27
2022-12-28T03:22:34.027Z,55.59
2022-12-28T03:23:34.067Z,59.78
2022-12-28T03:24:34.438Z,62.52
2022-12-28T03:25:34.029Z,53.98
2022-12-28T03:26:34.011Z,51.08
2022-12-28T03:27:34.247Z,50.43
2022-12-28T03:28:33.903Z,56.72
2022-12-28T03:29:33.918Z,58.17
2022-12-28T03:30:33.894Z,58.81
2022-12-28T03:31:33.883Z,57.20
2022-12-28T03:32:33.903Z,58.97
2022-12-28T03:33:33.880Z,60.26
2022-12-28T03:34:33.840Z,60.10
2022-12-28T03:35:33.920Z,60.26
2022-12-28T03:36:33.928Z,51.88
2022-12-28T03:37:33.907Z,55.43
2022-12-28T03:38:33.887Z,61.23
2022-12-28T03:39:33.886Z,59.14
2022-12-28T03:40:33.995Z,55.75
2022-12-28T03:41:33.884Z,53.66
2022-12-28T03:42:33.874Z,57.52
2022-12-28T03:43:33.898Z,54.62
2022-12-28T03:44:33.883Z,55.43
2022-12-28T03:45:45.323Z,55.75
2022-12-28T03:46:34.854Z,54.46
2022-12-28T03:47:33.843Z,59.62
2022-12-28T03:48:33.899Z,52.05
2022-12-28T03:49:33.817Z,52.85
2022-12-28T03:50:33.839Z,57.04
2022-12-28T03:51:33.892Z,52.37
2022-12-28T03:52:33.846Z,54.79
2022-12-28T03:53:33.828Z,55.11
2022-12-28T03:54:33.854Z,54.30
2022-12-28T03:55:33.772Z,61.23
2022-12-28T03:56:33.870Z,57.69
2022-12-28T03:57:33.849Z,57.69
2022-12-28T03:58:33.754Z,55.91
2022-12-28T03:59:33.726Z,55.91
2022-12-28T04:00:33.742Z,61.07
2022-12-28T04:01:33.806Z,57.85
2022-12-28T04:02:33.943Z,55.43
2022-12-28T04:03:33.765Z,53.33
2022-12-28T04:04:33.738Z,57.69
2022-12-28T04:05:33.698Z,58.65
2022-12-28T04:06:33.876Z,60.10
2022-12-28T04:07:35.902Z,57.69
2022-12-28T04:08:33.719Z,58.01
2022-12-28T04:09:33.688Z,59.14
2022-12-28T04:10:33.659Z,56.72
2022-12-28T04:11:34.609Z,59.30
2022-12-28T04:12:33.685Z,58.97
2022-12-28T04:13:33.779Z,57.52
2022-12-28T04:14:33.663Z,57.36
2022-12-28T04:15:33.711Z,59.14
2022-12-28T04:16:33.578Z,57.52
2022-12-28T04:17:33.585Z,57.04
2022-12-28T04:18:33.605Z,57.85
2022-12-28T04:19:33.575Z,55.59
2022-12-28T04:20:33.528Z,57.20
2022-12-28T04:21:33.533Z,60.10
2022-12-28T04:22:33.598Z,54.79
2022-12-28T04:23:33.566Z,56.24
2022-12-28T04:24:34.176Z,55.11
2022-12-28T04:25:33.486Z,62.20
2022-12-28T04:26:33.641Z,61.07
2022-12-28T04:27:33.588Z,54.46
2022-12-28T04:28:33.544Z,54.30
2022-12-28T04:29:33.545Z,53.01
2022-12-28T04:30:33.582Z,61.23
2022-12-28T04:31:33.669Z,58.49
2022-12-28T04:32:34.597Z,58.33
2022-12-28T04:33:33.526Z,56.56
2022-12-28T04:34:33.525Z,55.43
2022-12-28T04:35:33.567Z,62.84
2022-12-28T04:36:33.536Z,59.14
2022-12-28T04:37:33.525Z,53.17
2022-12-28T04:38:33.523Z,59.46
2022-12-28T04:39:54.260Z,61.55
2022-12-28T04:40:34.428Z,60.42
2022-12-28T04:41:33.547Z,60.42
2022-12-28T04:42:33.572Z,59.78
2022-12-28T04:43:33.478Z,59.94
2022-12-28T04:44:33.476Z,58.49
2022-12-28T04:45:33.446Z,60.59
2022-12-28T04:46:33.514Z,62.20
2022-12-28T04:47:33.409Z,60.59
2022-12-28T04:48:33.443Z,66.71
2022-12-28T04:49:33.420Z,57.69
2022-12-28T04:50:33.386Z,65.26
2022-12-28T04:51:33.444Z,61.55
2022-12-28T04:52:33.364Z,63.49
2022-12-28T04:53:33.388Z,59.62
2022-12-28T04:54:33.372Z,61.71
2022-12-28T04:55:33.661Z,58.01
2022-12-28T04:56:34.369Z,57.85
2022-12-28T04:57:34.375Z,60.26
2022-12-28T04:58:33.391Z,63.16
2022-12-28T04:59:33.405Z,56.72
2022-12-28T05:00:33.402Z,62.20
2022-12-28T05:01:33.483Z,56.56
2022-12-28T05:02:34.426Z,58.65
2022-12-28T05:03:33.382Z,58.97
2022-12-28T05:04:33.301Z,58.65
2022-12-28T05:05:33.401Z,67.68
2022-12-28T05:06:33.282Z,59.46
2022-12-28T05:07:33.209Z,59.14
2022-12-28T05:08:33.254Z,57.85
2022-12-28T05:09:33.203Z,58.81
2022-12-28T05:10:33.200Z,59.30
2022-12-28T05:11:33.229Z,59.62
2022-12-28T05:12:33.192Z,61.23
2022-12-28T05:13:33.239Z,60.26
2022-12-28T05:14:37.011Z,60.59
2022-12-28T05:15:34.202Z,61.23
2022-12-28T05:16:33.214Z,59.62
2022-12-28T05:17:33.167Z,61.07
2022-12-28T05:18:33.146Z,58.01
2022-12-28T05:19:33.386Z,59.62
2022-12-28T05:20:33.135Z,61.87
2022-12-28T05:21:33.116Z,61.23
2022-12-28T05:22:36.293Z,57.04
2022-12-28T05:23:35.100Z,61.55
2022-12-28T05:24:33.120Z,60.59
2022-12-28T05:25:33.081Z,61.23
2022-12-28T05:26:33.267Z,59.78
2022-12-28T05:27:33.218Z,64.45
2022-12-28T05:28:33.282Z,61.55
2022-12-28T05:29:33.199Z,57.69
2022-12-28T05:30:33.135Z,58.17
2022-12-28T05:31:33.181Z,61.87
2022-12-28T05:32:33.104Z,60.42
2022-12-28T05:33:33.083Z,59.94
2022-12-28T05:34:33.122Z,58.65
2022-12-28T05:35:33.140Z,61.87
2022-12-28T05:36:33.096Z,61.55
2022-12-28T05:37:33.093Z,58.49
2022-12-28T05:38:33.074Z,61.07
2022-12-28T05:39:33.089Z,63.16
2022-12-28T05:40:33.109Z,59.62
2022-12-28T05:41:33.067Z,60.75
2022-12-28T05:42:33.006Z,62.36
2022-12-28T05:43:33.106Z,61.07
2022-12-28T05:44:33.048Z,63.81
2022-12-28T05:45:33.095Z,62.04
2022-12-28T05:46:33.115Z,63.00
2022-12-28T05:47:33.087Z,62.20
2022-12-28T05:48:33.002Z,61.07
2022-12-28T05:49:33.046Z,62.52
2022-12-28T05:50:33.011Z,58.97
2022-12-28T05:51:33.142Z,64.94
2022-12-28T05:52:32.960Z,58.81
2022-12-28T05:53:32.917Z,60.10
2022-12-28T05:54:32.875Z,61.23
2022-12-28T05:55:32.905Z,63.33
2022-12-28T05:56:32.846Z,62.36
2022-12-28T05:57:32.888Z,61.39
2022-12-28T05:58:32.884Z,60.26
2022-12-28T05:59:32.841Z,62.04
2022-12-28T06:00:32.848Z,61.23
2022-12-28T06:01:32.981Z,56.72
2022-12-28T06:02:32.980Z,60.59
2022-12-28T06:03:32.941Z,62.20
2022-12-28T06:04:32.844Z,63.16
2022-12-28T06:05:32.802Z,61.23
2022-12-28T06:06:32.873Z,61.71
2022-12-28T06:07:32.907Z,64.29
2022-12-28T06:08:32.747Z,59.78
2022-12-28T06:09:32.845Z,60.26
2022-12-28T06:10:32.894Z,64.94
2022-12-28T06:11:32.864Z,60.59
2022-12-28T06:12:32.875Z,58.17
2022-12-28T06:13:32.903Z,62.20
2022-12-28T06:14:32.912Z,59.62
2022-12-28T06:15:32.817Z,60.10
2022-12-28T06:16:32.867Z,62.84
2022-12-28T06:17:32.822Z,61.23
2022-12-28T06:18:32.802Z,60.26
2022-12-28T06:19:32.780Z,61.71
2022-12-28T06:20:32.839Z,61.71
2022-12-28T06:21:32.807Z,58.33
2022-12-28T06:22:32.772Z,63.49
2022-12-28T06:23:32.738Z,58.49
2022-12-28T06:24:32.798Z,58.17
2022-12-28T06:25:32.749Z,60.59
2022-12-28T06:26:32.739Z,63.33
2022-12-28T06:27:32.727Z,61.23
2022-12-28T06:28:32.741Z,59.78
2022-12-28T06:29:32.773Z,61.39
2022-12-28T06:30:32.719Z,59.78
2022-12-28T06:31:32.820Z,58.01
2022-12-28T06:32:32.692Z,61.55
2022-12-28T06:33:32.751Z,62.20
2022-12-28T06:34:32.657Z,62.04
2022-12-28T06:35:33.126Z,61.71
2022-12-28T06:36:32.680Z,61.87
2022-12-28T06:37:32.668Z,58.65
2022-12-28T06:38:32.732Z,63.49
2022-12-28T06:39:32.651Z,61.55
2022-12-28T06:41:02.386Z,60.91
2022-12-28T06:41:34.549Z,59.14
2022-12-28T06:42:32.610Z,57.36
2022-12-28T06:43:32.620Z,60.75
2022-12-28T06:44:32.630Z,65.26
2022-12-28T06:45:32.664Z,73.48
2022-12-28T06:46:32.631Z,61.71
2022-12-28T06:47:32.583Z,63.16
2022-12-28T06:48:32.635Z,57.36
2022-12-28T06:49:32.578Z,61.07
2022-12-28T06:50:38.319Z,62.20
2022-12-28T06:51:35.612Z,60.26
2022-12-28T06:52:32.505Z,64.29
2022-12-28T06:53:32.469Z,60.26
2022-12-28T06:54:32.461Z,59.30
2022-12-28T06:55:32.450Z,61.71
2022-12-28T06:56:32.493Z,61.55
2022-12-28T06:57:32.424Z,65.42
2022-12-28T06:58:32.422Z,62.52
2022-12-28T06:59:32.451Z,62.36
2022-12-28T07:00:32.405Z,59.78
2022-12-28T07:01:32.548Z,61.23
2022-12-28T07:02:32.555Z,63.49
2022-12-28T07:03:32.445Z,59.78
2022-12-28T07:04:32.372Z,62.68
2022-12-28T07:05:32.466Z,62.04
2022-12-28T07:06:32.465Z,62.20
2022-12-28T07:07:32.472Z,60.91
2022-12-28T07:08:33.360Z,63.16
2022-12-28T07:09:32.467Z,62.20
2022-12-28T07:10:32.444Z,58.65
2022-12-28T07:11:32.412Z,61.87
2022-12-28T07:12:32.394Z,63.16
2022-12-28T07:13:32.452Z,60.10
2022-12-28T07:14:32.420Z,68.80
2022-12-28T07:15:32.428Z,62.84
2022-12-28T07:18:18.046Z,59.30
2022-12-28T07:19:18.088Z,61.55
2022-12-28T07:20:18.040Z,75.41
2022-12-28T07:21:18.049Z,63.00
2022-12-28T07:22:18.057Z,63.00
2022-12-28T07:23:19.038Z,59.78
2022-12-28T07:24:18.083Z,67.84
2022-12-28T07:25:18.008Z,59.94
2022-12-28T07:26:18.076Z,61.71
2022-12-28T07:27:18.062Z,68.80
2022-12-28T07:28:18.030Z,62.20
2022-12-28T07:29:18.046Z,62.04
2022-12-28T07:30:18.099Z,62.68
2022-12-28T07:31:18.167Z,63.81
2022-12-28T07:32:18.020Z,61.71
2022-12-28T07:33:18.028Z,63.49
2022-12-28T07:34:18.138Z,59.94
2022-12-28T07:35:18.087Z,69.13
2022-12-28T07:36:18.039Z,66.87
2022-12-28T07:37:17.999Z,63.97
2022-12-28T07:38:21.309Z,63.33
2022-12-28T07:39:19.005Z,65.42
2022-12-28T07:40:17.965Z,60.75
2022-12-28T07:41:18.265Z,62.04
2022-12-28T07:42:17.937Z,61.71
2022-12-28T07:43:17.989Z,63.65
2022-12-28T07:44:17.925Z,63.00
2022-12-28T07:45:18.001Z,69.77
2022-12-28T07:46:18.093Z,61.23
2022-12-28T07:47:17.979Z,72.67
2022-12-28T07:48:17.914Z,62.36
2022-12-28T07:49:17.934Z,65.42
2022-12-28T07:50:17.934Z,66.39
2022-12-28T07:51:17.907Z,62.20
2022-12-28T07:52:17.958Z,66.39
2022-12-28T07:53:22.034Z,65.10
2022-12-28T07:54:18.919Z,62.52
2022-12-28T07:55:17.904Z,63.49
2022-12-28T07:56:17.904Z,65.42
2022-12-28T07:57:17.906Z,63.49
2022-12-28T07:58:17.851Z,63.00
2022-12-28T07:59:17.846Z,64.13
2022-12-28T08:00:17.879Z,74.12
2022-12-28T08:01:18.023Z,63.65
2022-12-28T08:02:17.953Z,73.32
2022-12-28T08:03:17.870Z,62.36
2022-12-28T08:04:17.778Z,64.45
2022-12-28T08:05:17.738Z,65.42
2022-12-28T08:06:17.729Z,61.39
2022-12-28T08:07:17.750Z,65.58
2022-12-28T08:08:17.783Z,76.05
2022-12-28T08:09:17.713Z,59.78
2022-12-28T08:10:17.783Z,61.07
2022-12-28T08:11:17.712Z,61.39
2022-12-28T08:12:17.758Z,59.78
2022-12-28T08:13:17.740Z,64.61
2022-12-28T08:14:17.801Z,62.52
2022-12-28T08:15:17.744Z,62.04
2022-12-28T08:16:17.727Z,63.97
2022-12-28T08:17:21.189Z,61.23
2022-12-28T08:18:18.700Z,58.49
2022-12-28T08:19:17.733Z,61.23
2022-12-28T08:20:17.605Z,66.55
2022-12-28T08:21:17.718Z,61.23
2022-12-28T08:22:17.671Z,59.30
2022-12-28T08:23:17.780Z,61.55
2022-12-28T08:24:17.721Z,59.78
2022-12-28T08:25:17.723Z,64.29
2022-12-28T08:26:17.653Z,62.84
2022-12-28T08:27:17.693Z,62.20
2022-12-28T08:28:17.620Z,61.55
2022-12-28T08:29:17.661Z,60.75
2022-12-28T08:30:18.678Z,64.29
2022-12-28T08:31:17.736Z,60.75
2022-12-28T08:32:17.590Z,63.65
2022-12-28T08:33:17.621Z,61.71
2022-12-28T08:34:17.623Z,64.61
2022-12-28T08:35:17.622Z,62.84
2022-12-28T08:36:17.522Z,67.35
2022-12-28T08:37:18.507Z,60.75
2022-12-28T08:38:17.545Z,59.78
2022-12-28T08:39:17.501Z,62.04
2022-12-28T08:40:17.471Z,58.65
2022-12-28T08:41:18.037Z,60.75
2022-12-28T08:42:17.457Z,61.71
2022-12-28T08:43:17.429Z,62.20
2022-12-28T08:44:17.450Z,60.59
2022-12-28T08:45:17.456Z,61.07
2022-12-28T08:46:17.643Z,60.75
2022-12-28T08:47:17.480Z,59.14
2022-12-28T08:48:17.410Z,61.55
2022-12-28T08:49:17.421Z,61.87
2022-12-28T08:50:20.073Z,61.71
2022-12-28T08:51:18.419Z,63.65
2022-12-28T08:52:17.393Z,62.52
2022-12-28T08:53:17.523Z,62.20
2022-12-28T08:54:17.534Z,62.68
2022-12-28T08:55:17.462Z,62.20
2022-12-28T08:56:17.459Z,62.04
2022-12-28T08:57:17.491Z,62.68
2022-12-28T08:58:17.420Z,62.68
2022-12-28T08:59:17.430Z,63.81
2022-12-28T09:00:17.428Z,62.68
2022-12-28T09:01:17.526Z,61.71
2022-12-28T09:02:17.517Z,59.46
2022-12-28T09:03:17.495Z,63.33
2022-12-28T09:04:17.390Z,61.71
2022-12-28T09:05:17.388Z,64.13
2022-12-28T09:06:17.355Z,62.68
2022-12-28T09:07:17.345Z,64.13
2022-12-28T09:08:17.339Z,63.33
2022-12-28T09:09:17.465Z,62.20
2022-12-28T09:10:17.395Z,64.13
2022-12-28T09:11:17.362Z,64.13
2022-12-28T09:12:17.375Z,65.42
2022-12-28T09:13:17.404Z,62.68
2022-12-28T09:14:23.705Z,60.26
2022-12-28T09:15:19.330Z,64.94
2022-12-28T09:16:17.353Z,65.58
2022-12-28T09:17:17.380Z,60.75
2022-12-28T09:18:17.321Z,62.68
2022-12-28T09:19:17.315Z,62.84
2022-12-28T09:20:17.198Z,62.84
2022-12-28T09:21:17.234Z,62.52
2022-12-28T09:22:17.197Z,63.16
2022-12-28T09:23:17.197Z,62.04
2022-12-28T09:24:17.336Z,61.71
2022-12-28T09:25:17.172Z,59.78
2022-12-28T09:26:17.167Z,60.75
2022-12-28T09:27:17.192Z,57.52
2022-12-28T09:28:17.202Z,60.26
2022-12-28T09:29:17.176Z,60.10
2022-12-28T09:30:17.311Z,61.71
2022-12-28T09:31:17.266Z,59.46
2022-12-28T09:32:17.246Z,63.65
2022-12-28T09:33:17.224Z,60.59
2022-12-28T09:34:35.982Z,58.81
2022-12-28T09:35:19.150Z,63.33
2022-12-28T09:36:17.200Z,62.20
2022-12-28T09:37:18.147Z,58.65
2022-12-28T09:38:17.878Z,60.26
2022-12-28T09:39:17.350Z,60.91
2022-12-28T09:40:17.227Z,60.42
2022-12-28T09:41:17.179Z,85.24
2022-12-28T09:42:17.233Z,72.03
2022-12-28T09:43:17.190Z,69.29
2022-12-28T09:44:17.232Z,68.00
2022-12-28T09:45:17.146Z,59.78
2022-12-28T09:46:17.793Z,67.68
2022-12-28T09:47:17.172Z,65.10
2022-12-28T09:48:17.123Z,58.97
2022-12-28T09:49:17.227Z,62.04
2022-12-28T09:50:17.236Z,64.29
2022-12-28T09:51:17.203Z,63.00
2022-12-28T09:52:17.143Z,62.20
2022-12-28T09:53:18.082Z,58.17
2022-12-28T09:54:17.107Z,61.71
2022-12-28T09:55:17.075Z,71.70
2022-12-28T09:56:17.098Z,65.74
2022-12-28T09:57:17.105Z,61.87
2022-12-28T09:58:17.071Z,64.29
2022-12-28T09:59:17.077Z,61.07
2022-12-28T10:00:17.111Z,59.78
2022-12-28T10:01:17.171Z,63.33
2022-12-28T10:02:17.149Z,73.80
2022-12-28T10:03:17.157Z,67.51
2022-12-28T10:04:18.012Z,61.71
2022-12-28T10:05:17.072Z,64.45
2022-12-28T10:06:16.992Z,60.10
2022-12-28T10:07:17.096Z,66.06
2022-12-28T10:08:16.955Z,65.42
2022-12-28T10:09:17.091Z,76.22
2022-12-28T10:10:17.040Z,61.87
2022-12-28T10:11:17.106Z,61.39
2022-12-28T10:12:16.870Z,76.54
2022-12-28T10:13:37.404Z,79.28
2022-12-28T10:14:18.869Z,59.30
2022-12-28T10:15:16.903Z,60.26
2022-12-28T10:16:16.907Z,60.10
2022-12-28T10:17:16.861Z,69.77
2022-12-28T10:18:16.887Z,64.45
2022-12-28T10:19:16.859Z,59.78
2022-12-28T10:20:16.831Z,69.93
2022-12-28T10:21:16.835Z,72.99
2022-12-28T10:22:16.813Z,69.77
2022-12-28T10:23:16.836Z,68.64
2022-12-28T10:24:33.030Z,59.46
2022-12-28T10:25:18.796Z,73.32
2022-12-28T10:26:16.831Z,73.15
2022-12-28T10:27:16.798Z,58.49
2022-12-28T10:28:16.831Z,59.78
2022-12-28T10:29:16.906Z,62.20
2022-12-28T10:30:17.069Z,62.52
2022-12-28T10:31:16.877Z,78.96
2022-12-28T10:32:16.933Z,79.44
2022-12-28T10:33:16.874Z,71.06
2022-12-28T10:34:17.735Z,69.13
2022-12-28T10:35:16.886Z,69.45
2022-12-28T10:36:16.869Z,67.19
2022-12-28T10:37:16.805Z,64.29
2022-12-28T10:38:16.831Z,73.96
2022-12-28T10:39:16.849Z,74.44
2022-12-28T10:40:16.822Z,66.87
2022-12-28T10:41:17.125Z,64.78
2022-12-28T10:42:16.787Z,70.25
2022-12-28T10:43:16.747Z,61.23
2022-12-28T10:44:40.382Z,61.39
2022-12-28T10:45:18.669Z,65.74
2022-12-28T10:46:17.003Z,66.55
2022-12-28T10:47:16.926Z,60.59
2022-12-28T10:48:16.825Z,62.52
2022-12-28T10:49:16.891Z,70.74
2022-12-28T10:50:36.705Z,64.61
2022-12-28T10:51:18.665Z,75.89
2022-12-28T10:52:16.707Z,76.70
2022-12-28T10:53:16.721Z,74.44
2022-12-28T10:54:16.703Z,70.09
2022-12-28T10:55:17.589Z,65.42
2022-12-28T10:56:17.513Z,66.55
2022-12-28T10:57:16.817Z,61.71
2022-12-28T10:58:29.455Z,74.77
2022-12-28T10:59:18.603Z,59.78
2022-12-28T11:00:16.645Z,61.39
2022-12-28T11:01:17.818Z,62.20
2022-12-28T11:02:16.819Z,65.10
2022-12-28T11:03:16.632Z,74.93
2022-12-28T11:04:16.630Z,72.83
2022-12-28T11:05:16.624Z,73.80
2022-12-28T11:06:18.855Z,64.45
2022-12-28T11:07:17.654Z,68.64
2022-12-28T11:08:16.486Z,61.87
2022-12-28T11:09:16.631Z,69.93
2022-12-28T11:10:16.631Z,62.04
2022-12-28T11:11:17.561Z,70.58
2022-12-28T11:12:16.584Z,60.75
2022-12-28T11:13:21.566Z,60.91
2022-12-28T11:14:18.526Z,61.39
2022-12-28T11:15:16.514Z,64.29
2022-12-28T11:16:16.559Z,74.12
2022-12-28T11:17:16.497Z,65.74
2022-12-28T11:18:16.562Z,68.48
2022-12-28T11:19:16.532Z,72.19
2022-12-28T11:20:16.575Z,60.91
2022-12-28T11:21:16.386Z,62.68
2022-12-28T11:22:16.487Z,68.32
2022-12-28T11:23:16.508Z,71.22
2022-12-28T11:24:16.469Z,68.80
2022-12-28T11:25:16.454Z,61.71
2022-12-28T11:26:16.373Z,77.34
2022-12-28T11:27:16.596Z,90.40
2022-12-28T11:28:16.359Z,82.18
2022-12-28T11:29:16.383Z,73.96
2022-12-28T11:30:17.666Z,71.06
2022-12-28T11:31:17.386Z,69.77
2022-12-28T11:32:16.302Z,63.97
2022-12-28T11:33:16.294Z,82.02
2022-12-28T11:34:16.299Z,90.72
2022-12-28T11:35:16.301Z,70.58
2022-12-28T11:36:16.281Z,81.05
2022-12-28T11:37:16.349Z,84.92
2022-12-28T11:38:16.295Z,85.24
2022-12-28T11:39:16.300Z,63.49
2022-12-28T11:40:16.368Z,71.38
2022-12-28T11:41:16.278Z,66.71
2022-12-28T11:43:18.248Z,62.52
2022-12-28T11:44:16.246Z,63.16
2022-12-28T11:45:16.295Z,63.16
2022-12-28T11:46:16.345Z,63.65
2022-12-28T11:47:16.324Z,76.22
2022-12-28T11:48:16.300Z,62.68
2022-12-28T11:49:16.347Z,63.00
2022-12-28T11:50:16.299Z,67.03
2022-12-28T11:51:16.648Z,63.81
2022-12-28T11:52:16.264Z,69.13
2022-12-28T11:53:16.220Z,64.29
2022-12-28T11:54:16.257Z,61.23
2022-12-28T11:55:16.251Z,60.59
2022-12-28T11:56:16.303Z,64.45
2022-12-28T11:57:16.233Z,60.42
2022-12-28T11:58:16.285Z,60.10
2022-12-28T11:59:16.216Z,59.94
2022-12-28T12:00:21.824Z,60.75
2022-12-28T12:01:18.267Z,60.59
2022-12-28T12:02:16.350Z,62.20
2022-12-28T12:03:16.288Z,62.68
2022-12-28T12:04:16.346Z,63.16
2022-12-28T12:05:16.195Z,63.65
2022-12-28T12:06:16.248Z,63.49
2022-12-28T12:07:16.161Z,61.71
2022-12-28T12:08:16.634Z,61.71
2022-12-28T12:09:16.117Z,73.15
2022-12-28T12:10:16.179Z,63.81
2022-12-28T12:11:16.143Z,61.07
2022-12-28T12:12:18.080Z,70.09
2022-12-28T12:13:17.202Z,70.58
2022-12-28T12:14:16.093Z,74.28
2022-12-28T12:15:16.110Z,64.13
2022-12-28T12:16:16.153Z,66.87
2022-12-28T12:17:16.150Z,62.20
2022-12-28T12:18:16.126Z,68.48
2022-12-28T12:19:16.126Z,68.16
2022-12-28T12:20:16.133Z,62.04
2022-12-28T12:21:16.343Z,63.49
2022-12-28T12:22:17.060Z,62.20
2022-12-28T12:23:16.181Z,65.58
2022-12-28T12:24:16.158Z,68.96
2022-12-28T12:25:16.180Z,71.06
2022-12-28T12:26:16.111Z,62.84
2022-12-28T12:27:16.121Z,67.84
2022-12-28T12:28:16.049Z,68.64
2022-12-28T12:29:16.097Z,75.41
2022-12-28T12:30:16.053Z,79.60
2022-12-28T12:31:16.160Z,81.37
2022-12-28T12:32:17.052Z,62.20
2022-12-28T12:33:15.996Z,63.49
2022-12-28T12:34:19.407Z,66.39
2022-12-28T12:35:17.023Z,67.51
2022-12-28T12:36:16.014Z,65.10
2022-12-28T12:37:16.134Z,67.03
2022-12-28T12:38:15.868Z,80.41
2022-12-28T12:39:15.844Z,69.61
2022-12-28T12:40:16.133Z,71.70
2022-12-28T12:41:15.853Z,71.38
2022-12-28T12:42:15.851Z,62.36
2022-12-28T12:43:15.844Z,71.70
2022-12-28T12:44:15.895Z,62.20
2022-12-28T12:45:15.807Z,63.65
2022-12-28T12:46:15.872Z,61.71
2022-12-28T12:47:15.790Z,59.78
2022-12-28T12:48:16.091Z,62.68
2022-12-28T12:49:15.778Z,61.71
2022-12-28T12:50:15.795Z,64.61
2022-12-28T12:51:15.815Z,71.22
2022-12-28T12:52:15.791Z,62.52
2022-12-28T12:53:15.777Z,68.00
2022-12-28T12:54:15.743Z,70.58
2022-12-28T12:55:15.857Z,61.55